sensor_id;sensor_type;location;lat;lon;timestamp;pressure;altitude;pressure_sealevel;temperature;humidity
21185;BME280;18176;49.502;11.754;2022-09-09T00:02:28;96698.91;;;19.28;62.67
21185;BME280;18176;49.502;11.754;2022-09-09T00:06:31;96692.88;;;19.36;62.17
21185;BME280;18176;49.502;11.754;2022-09-09T00:10:37;96691.78;;;19.19;62.53
21185;BME280;18176;49.502;11.754;2022-09-09T00:14:56;96689.97;;;19.14;62.51
21185;BME280;18176;49.502;11.754;2022-09-09T00:19:25;96686.53;;;19.09;62.63
21185;BME280;18176;49.502;11.754;2022-09-09T00:23:31;96675.78;;;19.09;62.61
21185;BME280;18176;49.502;11.754;2022-09-09T00:27:43;96671.22;;;19.09;62.53
21185;BME280;18176;49.502;11.754;2022-09-09T00:31:42;96664.03;;;19.05;62.26
21185;BME280;18176;49.502;11.754;2022-09-09T00:35:47;96675.00;;;19.08;62.72
21185;BME280;18176;49.502;11.754;2022-09-09T00:39:48;96649.47;;;18.92;62.38
21185;BME280;18176;49.502;11.754;2022-09-09T00:53:56;96676.44;;;19.01;62.65
21185;BME280;18176;49.502;11.754;2022-09-09T00:57:55;96661.25;;;18.72;62.34
21185;BME280;18176;49.502;11.754;2022-09-09T01:01:54;96644.00;;;18.31;63.66
21185;BME280;18176;49.502;11.754;2022-09-09T01:06:01;96656.00;;;18.39;63.58
21185;BME280;18176;49.502;11.754;2022-09-09T01:10:11;96655.06;;;18.53;62.80
21185;BME280;18176;49.502;11.754;2022-09-09T01:14:41;96676.44;;;18.58;63.06
21185;BME280;18176;49.502;11.754;2022-09-09T01:18:46;96660.34;;;18.35;62.89
21185;BME280;18176;49.502;11.754;2022-09-09T01:27:53;96666.16;;;18.18;63.42
21185;BME280;18176;49.502;11.754;2022-09-09T01:32:01;96688.91;;;18.20;63.76
21185;BME280;18176;49.502;11.754;2022-09-09T01:36:19;96687.81;;;17.98;64.17
21185;BME280;18176;49.502;11.754;2022-09-09T01:40:21;96685.59;;;18.05;64.51
21185;BME280;18176;49.502;11.754;2022-09-09T01:44:19;96684.13;;;17.89;64.38
21185;BME280;18176;49.502;11.754;2022-09-09T01:48:18;96657.75;;;17.72;65.02
21185;BME280;18176;49.502;11.754;2022-09-09T01:52:22;96672.13;;;17.81;64.66
21185;BME280;18176;49.502;11.754;2022-09-09T01:56:28;96676.16;;;17.79;64.90
21185;BME280;18176;49.502;11.754;2022-09-09T02:00:33;96676.59;;;17.91;64.90
21185;BME280;18176;49.502;11.754;2022-09-09T02:04:43;96651.03;;;17.75;64.81
21185;BME280;18176;49.502;11.754;2022-09-09T02:08:56;96683.13;;;18.08;64.64
21185;BME280;18176;49.502;11.754;2022-09-09T02:13:17;96657.34;;;17.89;64.56
21185;BME280;18176;49.502;11.754;2022-09-09T02:17:32;96659.34;;;18.02;64.60
21185;BME280;18176;49.502;11.754;2022-09-09T02:21:36;96648.66;;;17.97;64.51
21185;BME280;18176;49.502;11.754;2022-09-09T02:25:36;96670.25;;;18.10;64.74
21185;BME280;18176;49.502;11.754;2022-09-09T02:29:45;96655.50;;;18.08;65.11
21185;BME280;18176;49.502;11.754;2022-09-09T02:33:55;96659.06;;;18.27;64.90
21185;BME280;18176;49.502;11.754;2022-09-09T02:37:59;96641.97;;;18.23;64.40
21185;BME280;18176;49.502;11.754;2022-09-09T02:41:59;96659.97;;;18.46;64.25
21185;BME280;18176;49.502;11.754;2022-09-09T02:46:39;96630.81;;;18.11;64.86
21185;BME280;18176;49.502;11.754;2022-09-09T02:50:56;96664.75;;;18.44;64.14
21185;BME280;18176;49.502;11.754;2022-09-09T02:55:12;96648.81;;;18.34;63.66
21185;BME280;18176;49.502;11.754;2022-09-09T02:59:16;96645.47;;;18.42;63.33
21185;BME280;18176;49.502;11.754;2022-09-09T03:03:16;96658.41;;;18.64;63.42
21185;BME280;18176;49.502;11.754;2022-09-09T03:07:17;96633.16;;;18.41;62.92
21185;BME280;18176;49.502;11.754;2022-09-09T03:11:17;96646.13;;;18.34;63.52
21185;BME280;18176;49.502;11.754;2022-09-09T03:15:14;96646.41;;;18.09;63.82
21185;BME280;18176;49.502;11.754;2022-09-09T03:19:12;96647.84;;;18.25;63.31
21185;BME280;18176;49.502;11.754;2022-09-09T03:23:11;96656.44;;;18.22;63.57
21185;BME280;18176;49.502;11.754;2022-09-09T03:27:13;96634.06;;;18.08;63.58
21185;BME280;18176;49.502;11.754;2022-09-09T03:31:11;96634.19;;;17.98;63.97
21185;BME280;18176;49.502;11.754;2022-09-09T03:35:10;96642.81;;;18.18;64.05
21185;BME280;18176;49.502;11.754;2022-09-09T03:39:07;96656.41;;;18.27;63.80
21185;BME280;18176;49.502;11.754;2022-09-09T03:43:04;96628.81;;;18.21;63.37
21185;BME280;18176;49.502;11.754;2022-09-09T03:47:02;96627.00;;;18.17;63.65
21185;BME280;18176;49.502;11.754;2022-09-09T03:51:00;96665.19;;;18.56;63.42
21185;BME280;18176;49.502;11.754;2022-09-09T03:55:00;96645.34;;;18.57;63.75
21185;BME280;18176;49.502;11.754;2022-09-09T03:58:58;96658.00;;;18.75;64.33
21185;BME280;18176;49.502;11.754;2022-09-09T04:02:55;96643.28;;;18.91;64.34
21185;BME280;18176;49.502;11.754;2022-09-09T04:06:55;96643.22;;;19.15;63.82
21185;BME280;18176;49.502;11.754;2022-09-09T04:10:54;96596.13;;;18.85;64.20
21185;BME280;18176;49.502;11.754;2022-09-09T04:14:54;96666.97;;;19.27;64.82
21185;BME280;18176;49.502;11.754;2022-09-09T04:18:51;96593.66;;;19.08;64.54
21185;BME280;18176;49.502;11.754;2022-09-09T04:22:50;96630.56;;;19.34;64.83
21185;BME280;18176;49.502;11.754;2022-09-09T04:26:47;96623.25;;;19.40;64.84
21185;BME280;18176;49.502;11.754;2022-09-09T04:30:45;96660.31;;;19.75;64.79
21185;BME280;18176;49.502;11.754;2022-09-09T04:34:42;96660.81;;;19.77;65.25
21185;BME280;18176;49.502;11.754;2022-09-09T04:38:39;96670.22;;;19.93;65.10
21185;BME280;18176;49.502;11.754;2022-09-09T04:42:37;96663.22;;;19.92;65.96
21185;BME280;18176;49.502;11.754;2022-09-09T04:46:34;96649.13;;;20.00;66.07
21185;BME280;18176;49.502;11.754;2022-09-09T04:50:31;96659.28;;;20.17;66.27
21185;BME280;18176;49.502;11.754;2022-09-09T04:54:29;96640.16;;;19.91;67.24
21185;BME280;18176;49.502;11.754;2022-09-09T04:58:26;96623.72;;;20.06;66.86
21185;BME280;18176;49.502;11.754;2022-09-09T05:02:24;96621.03;;;20.20;66.34
21185;BME280;18176;49.502;11.754;2022-09-09T05:06:27;96626.22;;;20.16;66.09
21185;BME280;18176;49.502;11.754;2022-09-09T05:10:27;96663.53;;;20.37;66.17
21185;BME280;18176;49.502;11.754;2022-09-09T05:14:25;96655.16;;;20.24;65.84
21185;BME280;18176;49.502;11.754;2022-09-09T05:18:24;96646.06;;;20.20;66.18
21185;BME280;18176;49.502;11.754;2022-09-09T05:22:21;96660.94;;;20.32;66.44
21185;BME280;18176;49.502;11.754;2022-09-09T05:26:22;96638.03;;;20.48;65.36
21185;BME280;18176;49.502;11.754;2022-09-09T05:30:22;96600.31;;;20.20;65.55
21185;BME280;18176;49.502;11.754;2022-09-09T05:34:23;96635.41;;;20.56;65.10
21185;BME280;18176;49.502;11.754;2022-09-09T05:38:20;96681.47;;;20.55;65.70
21185;BME280;18176;49.502;11.754;2022-09-09T05:42:24;96670.03;;;20.63;65.91
21185;BME280;18176;49.502;11.754;2022-09-09T05:46:23;96680.09;;;20.71;66.11
21185;BME280;18176;49.502;11.754;2022-09-09T05:50:23;96680.84;;;20.98;65.95
21185;BME280;18176;49.502;11.754;2022-09-09T05:54:25;96680.75;;;21.04;64.68
21185;BME280;18176;49.502;11.754;2022-09-09T05:58:24;96688.22;;;21.34;64.13
21185;BME280;18176;49.502;11.754;2022-09-09T06:02:21;96671.41;;;21.37;63.91
21185;BME280;18176;49.502;11.754;2022-09-09T06:06:23;96666.09;;;21.45;63.99
21185;BME280;18176;49.502;11.754;2022-09-09T06:10:21;96660.97;;;21.80;61.93
21185;BME280;18176;49.502;11.754;2022-09-09T06:14:18;96652.03;;;21.93;61.10
21185;BME280;18176;49.502;11.754;2022-09-09T06:18:18;96689.97;;;22.27;61.28
21185;BME280;18176;49.502;11.754;2022-09-09T06:22:16;96683.38;;;22.33;60.08
21185;BME280;18176;49.502;11.754;2022-09-09T06:26:26;96690.25;;;22.78;58.66
21185;BME280;18176;49.502;11.754;2022-09-09T06:30:25;96686.84;;;22.64;58.38
21185;BME280;18176;49.502;11.754;2022-09-09T06:34:22;96671.13;;;22.66;58.27
21185;BME280;18176;49.502;11.754;2022-09-09T06:38:23;96695.72;;;22.03;60.16
21185;BME280;18176;49.502;11.754;2022-09-09T06:42:22;96691.69;;;21.34;63.25
21185;BME280;18176;49.502;11.754;2022-09-09T06:46:30;96691.47;;;21.66;62.98
21185;BME280;18176;49.502;11.754;2022-09-09T06:50:30;96696.88;;;22.11;60.99
21185;BME280;18176;49.502;11.754;2022-09-09T06:54:27;96676.97;;;22.29;60.12
21185;BME280;18176;49.502;11.754;2022-09-09T06:58:25;96690.88;;;22.14;60.84
21185;BME280;18176;49.502;11.754;2022-09-09T07:02:24;96673.75;;;22.88;58.66
21185;BME280;18176;49.502;11.754;2022-09-09T07:06:25;96706.09;;;22.71;58.87
21185;BME280;18176;49.502;11.754;2022-09-09T07:10:23;96705.84;;;22.98;58.60
21185;BME280;18176;49.502;11.754;2022-09-09T07:14:20;96694.53;;;23.53;56.31
21185;BME280;18176;49.502;11.754;2022-09-09T07:18:28;96698.13;;;22.66;57.95
21185;BME280;18176;49.502;11.754;2022-09-09T07:22:27;96717.13;;;22.83;58.07
21185;BME280;18176;49.502;11.754;2022-09-09T07:26:28;96698.44;;;22.65;58.80
21185;BME280;18176;49.502;11.754;2022-09-09T07:30:28;96707.44;;;22.21;60.92
21185;BME280;18176;49.502;11.754;2022-09-09T07:34:27;96706.88;;;22.41;60.93
21185;BME280;18176;49.502;11.754;2022-09-09T07:38:26;96734.72;;;22.50;60.94
21185;BME280;18176;49.502;11.754;2022-09-09T07:42:24;96705.38;;;22.57;60.08
21185;BME280;18176;49.502;11.754;2022-09-09T07:46:25;96725.94;;;23.15;60.28
21185;BME280;18176;49.502;11.754;2022-09-09T07:50:23;96727.03;;;23.05;60.58
21185;BME280;18176;49.502;11.754;2022-09-09T07:54:21;96717.06;;;22.75;61.54
21185;BME280;18176;49.502;11.754;2022-09-09T07:58:22;96706.19;;;22.27;62.70
21185;BME280;18176;49.502;11.754;2022-09-09T08:02:19;96744.41;;;22.20;62.39
21185;BME280;18176;49.502;11.754;2022-09-09T08:06:16;96743.38;;;22.30;62.83
21185;BME280;18176;49.502;11.754;2022-09-09T08:10:13;96728.66;;;22.14;64.26
21185;BME280;18176;49.502;11.754;2022-09-09T08:14:14;96721.88;;;22.25;64.87
21185;BME280;18176;49.502;11.754;2022-09-09T08:18:11;96745.94;;;22.35;65.44
21185;BME280;18176;49.502;11.754;2022-09-09T08:22:09;96717.44;;;22.51;64.73
21185;BME280;18176;49.502;11.754;2022-09-09T08:26:14;96740.56;;;23.14;63.87
21185;BME280;18176;49.502;11.754;2022-09-09T08:30:12;96701.47;;;23.20;62.81
21185;BME280;18176;49.502;11.754;2022-09-09T08:34:10;96749.59;;;23.57;61.64
21185;BME280;18176;49.502;11.754;2022-09-09T08:38:07;96749.25;;;23.58;61.66
21185;BME280;18176;49.502;11.754;2022-09-09T08:42:44;96736.75;;;23.15;61.24
21185;BME280;18176;49.502;11.754;2022-09-09T08:51:04;96706.75;;;25.03;56.62
21185;BME280;18176;49.502;11.754;2022-09-09T08:59:44;96742.50;;;27.06;51.17
21185;BME280;18176;49.502;11.754;2022-09-09T09:04:20;96737.28;;;27.01;50.34
21185;BME280;18176;49.502;11.754;2022-09-09T09:12:24;96714.66;;;28.13;48.01
21185;BME280;18176;49.502;11.754;2022-09-09T09:16:39;96740.44;;;28.31;47.90
21185;BME280;18176;49.502;11.754;2022-09-09T09:21:16;96720.28;;;28.20;46.87
21185;BME280;18176;49.502;11.754;2022-09-09T09:25:31;96744.75;;;28.05;45.74
21185;BME280;18176;49.502;11.754;2022-09-09T09:29:31;96718.75;;;27.95;45.50
21185;BME280;18176;49.502;11.754;2022-09-09T09:37:41;96733.56;;;29.12;44.35
21185;BME280;18176;49.502;11.754;2022-09-09T09:42:11;96725.44;;;29.66;42.96
21185;BME280;18176;49.502;11.754;2022-09-09T09:46:22;96720.69;;;30.17;40.89
21185;BME280;18176;49.502;11.754;2022-09-09T09:50:31;96702.66;;;31.48;37.88
21185;BME280;18176;49.502;11.754;2022-09-09T09:54:33;96704.28;;;32.12;36.77
21185;BME280;18176;49.502;11.754;2022-09-09T09:58:53;96686.19;;;32.44;36.22
21185;BME280;18176;49.502;11.754;2022-09-09T10:03:00;96698.66;;;31.72;36.57
21185;BME280;18176;49.502;11.754;2022-09-09T10:07:16;96675.66;;;31.47;36.40
21185;BME280;18176;49.502;11.754;2022-09-09T10:15:35;96703.41;;;33.22;33.51
21185;BME280;18176;49.502;11.754;2022-09-09T10:19:42;96686.28;;;32.92;33.02
21185;BME280;18176;49.502;11.754;2022-09-09T10:29:16;96690.38;;;29.83;36.32
21185;BME280;18176;49.502;11.754;2022-09-09T10:36:59;96685.69;;;29.30;36.72
21185;BME280;18176;49.502;11.754;2022-09-09T10:45:34;96685.84;;;28.00;40.81
21185;BME280;18176;49.502;11.754;2022-09-09T10:53:57;96683.09;;;32.46;33.68
21185;BME280;18176;49.502;11.754;2022-09-09T10:57:59;96675.75;;;34.66;29.90
21185;BME280;18176;49.502;11.754;2022-09-09T11:02:15;96636.38;;;36.92;27.09
21185;BME280;18176;49.502;11.754;2022-09-09T11:06:20;96664.16;;;37.59;26.00
21185;BME280;18176;49.502;11.754;2022-09-09T11:10:44;96646.69;;;35.11;28.50
21185;BME280;18176;49.502;11.754;2022-09-09T11:14:54;96673.84;;;32.58;31.98
21185;BME280;18176;49.502;11.754;2022-09-09T11:19:28;96675.97;;;28.23;38.46
21185;BME280;18176;49.502;11.754;2022-09-09T11:23:42;96629.56;;;28.35;38.50
21185;BME280;18176;49.502;11.754;2022-09-09T11:32:22;96669.44;;;28.87;39.21
21185;BME280;18176;49.502;11.754;2022-09-09T11:36:48;96670.78;;;28.62;39.15
21185;BME280;18176;49.502;11.754;2022-09-09T11:41:03;96617.50;;;30.78;35.44
21185;BME280;18176;49.502;11.754;2022-09-09T11:45:23;96646.19;;;28.93;37.45
21185;BME280;18176;49.502;11.754;2022-09-09T11:49:41;96639.25;;;28.48;38.68
21185;BME280;18176;49.502;11.754;2022-09-09T11:53:54;96645.72;;;27.85;38.66
21185;BME280;18176;49.502;11.754;2022-09-09T11:58:03;96634.19;;;31.22;35.33
21185;BME280;18176;49.502;11.754;2022-09-09T12:02:22;96630.53;;;30.62;35.08
21185;BME280;18176;49.502;11.754;2022-09-09T12:06:31;96606.13;;;28.97;37.21
21185;BME280;18176;49.502;11.754;2022-09-09T12:10:35;96627.78;;;29.21;36.97
21185;BME280;18176;49.502;11.754;2022-09-09T12:14:44;96637.22;;;26.83;41.18
21185;BME280;18176;49.502;11.754;2022-09-09T12:18:50;96631.16;;;26.17;43.70
21185;BME280;18176;49.502;11.754;2022-09-09T12:27:44;96544.69;;;27.19;42.40
21185;BME280;18176;49.502;11.754;2022-09-09T12:35:58;96614.63;;;27.19;41.69
21185;BME280;18176;49.502;11.754;2022-09-09T12:40:00;96559.28;;;27.39;41.04
21185;BME280;18176;49.502;11.754;2022-09-09T12:44:10;96599.13;;;28.02;39.64
21185;BME280;18176;49.502;11.754;2022-09-09T12:48:09;96609.16;;;27.70;40.48
21185;BME280;18176;49.502;11.754;2022-09-09T12:52:25;96633.78;;;27.10;38.50
21185;BME280;18176;49.502;11.754;2022-09-09T12:56:32;96615.31;;;26.19;40.59
21185;BME280;18176;49.502;11.754;2022-09-09T13:00:29;96626.59;;;25.43;41.92
21185;BME280;18176;49.502;11.754;2022-09-09T13:04:27;96625.97;;;25.17;42.61
21185;BME280;18176;49.502;11.754;2022-09-09T13:08:27;96595.13;;;25.42;42.93
21185;BME280;18176;49.502;11.754;2022-09-09T13:12:24;96606.19;;;25.37;42.60
21185;BME280;18176;49.502;11.754;2022-09-09T13:16:34;96637.50;;;25.14;39.20
21185;BME280;18176;49.502;11.754;2022-09-09T13:20:38;96596.13;;;25.17;40.05
21185;BME280;18176;49.502;11.754;2022-09-09T13:24:36;96604.41;;;25.41;40.45
21185;BME280;18176;49.502;11.754;2022-09-09T13:28:34;96635.81;;;25.42;40.25
21185;BME280;18176;49.502;11.754;2022-09-09T13:32:31;96645.34;;;24.78;42.08
21185;BME280;18176;49.502;11.754;2022-09-09T13:36:34;96591.47;;;24.47;44.97
21185;BME280;18176;49.502;11.754;2022-09-09T13:40:31;96590.78;;;23.49;47.49
21185;BME280;18176;49.502;11.754;2022-09-09T13:44:41;96632.94;;;23.58;47.08
21185;BME280;18176;49.502;11.754;2022-09-09T13:48:39;96606.47;;;23.90;45.48
21185;BME280;18176;49.502;11.754;2022-09-09T13:52:37;96644.25;;;23.52;45.73
21185;BME280;18176;49.502;11.754;2022-09-09T13:56:37;96663.66;;;23.37;49.71
21185;BME280;18176;49.502;11.754;2022-09-09T14:00:35;96647.75;;;22.31;56.99
21185;BME280;18176;49.502;11.754;2022-09-09T14:04:32;96608.03;;;21.61;61.50
21185;BME280;18176;49.502;11.754;2022-09-09T14:08:31;96602.38;;;21.94;61.30
21185;BME280;18176;49.502;11.754;2022-09-09T14:12:34;96601.94;;;22.09;60.57
21185;BME280;18176;49.502;11.754;2022-09-09T14:16:32;96559.13;;;21.54;61.25
21185;BME280;18176;49.502;11.754;2022-09-09T14:20:29;96611.94;;;21.78;60.13
21185;BME280;18176;49.502;11.754;2022-09-09T14:24:27;96591.41;;;21.24;61.74
21185;BME280;18176;49.502;11.754;2022-09-09T14:28:25;96592.97;;;21.38;61.90
21185;BME280;18176;49.502;11.754;2022-09-09T14:32:42;96640.47;;;20.85;65.35
21185;BME280;18176;49.502;11.754;2022-09-09T14:36:40;96622.53;;;20.80;63.87
21185;BME280;18176;49.502;11.754;2022-09-09T14:40:38;96584.16;;;20.61;68.14
21185;BME280;18176;49.502;11.754;2022-09-09T14:44:35;96576.72;;;20.45;68.16
21185;BME280;18176;49.502;11.754;2022-09-09T14:48:32;96591.69;;;20.86;66.29
21185;BME280;18176;49.502;11.754;2022-09-09T14:52:30;96627.75;;;20.50;68.95
21185;BME280;18176;49.502;11.754;2022-09-09T14:56:31;96647.38;;;20.64;67.36
21185;BME280;18176;49.502;11.754;2022-09-09T15:00:29;96676.28;;;21.13;66.90
21185;BME280;18176;49.502;11.754;2022-09-09T15:05:15;96712.59;;;21.15;66.49
21185;BME280;18176;49.502;11.754;2022-09-09T15:09:15;96646.16;;;21.33;66.67
21185;BME280;18176;49.502;11.754;2022-09-09T15:13:14;96611.19;;;21.63;67.15
21185;BME280;18176;49.502;11.754;2022-09-09T15:17:14;96615.78;;;22.55;68.51
21185;BME280;18176;49.502;11.754;2022-09-09T15:21:13;96603.28;;;24.42;68.82
21185;BME280;18176;49.502;11.754;2022-09-09T15:25:10;96617.41;;;26.82;67.69
21185;BME280;18176;49.502;11.754;2022-09-09T15:29:09;96613.22;;;28.67;63.17
21185;BME280;18176;49.502;11.754;2022-09-09T15:33:08;96618.94;;;28.30;56.12
21185;BME280;18176;49.502;11.754;2022-09-09T15:37:10;96635.47;;;27.39;55.34
21185;BME280;18176;49.502;11.754;2022-09-09T15:41:11;96620.44;;;26.00;56.16
21185;BME280;18176;49.502;11.754;2022-09-09T15:45:09;96648.78;;;25.78;57.51
21185;BME280;18176;49.502;11.754;2022-09-09T15:49:09;96647.13;;;26.75;58.27
21185;BME280;18176;49.502;11.754;2022-09-09T15:53:07;96656.19;;;27.83;51.45
21185;BME280;18176;49.502;11.754;2022-09-09T15:57:07;96624.38;;;27.87;51.23
21185;BME280;18176;49.502;11.754;2022-09-09T16:01:07;96626.72;;;29.10;48.18
21185;BME280;18176;49.502;11.754;2022-09-09T16:05:06;96624.84;;;29.68;47.42
21185;BME280;18176;49.502;11.754;2022-09-09T16:09:06;96633.00;;;29.83;46.05
21185;BME280;18176;49.502;11.754;2022-09-09T16:13:03;96644.59;;;26.70;52.36
21185;BME280;18176;49.502;11.754;2022-09-09T16:17:00;96664.09;;;26.15;53.57
21185;BME280;18176;49.502;11.754;2022-09-09T16:20:59;96646.09;;;24.11;59.99
21185;BME280;18176;49.502;11.754;2022-09-09T16:24:56;96651.47;;;24.28;60.17
21185;BME280;18176;49.502;11.754;2022-09-09T16:28:53;96632.78;;;24.35;58.99
21185;BME280;18176;49.502;11.754;2022-09-09T16:32:51;96639.06;;;25.15;57.15
21185;BME280;18176;49.502;11.754;2022-09-09T16:36:48;96623.66;;;24.49;57.85
21185;BME280;18176;49.502;11.754;2022-09-09T16:40:45;96638.75;;;24.03;58.39
21185;BME280;18176;49.502;11.754;2022-09-09T16:44:42;96632.47;;;23.14;58.26
21185;BME280;18176;49.502;11.754;2022-09-09T16:48:39;96637.13;;;22.65;58.56
21185;BME280;18176;49.502;11.754;2022-09-09T16:52:36;96643.41;;;23.09;58.18
21185;BME280;18176;49.502;11.754;2022-09-09T16:56:37;96645.97;;;22.57;58.83
21185;BME280;18176;49.502;11.754;2022-09-09T17:00:35;96618.75;;;22.06;60.27
21185;BME280;18176;49.502;11.754;2022-09-09T17:04:32;96663.91;;;22.53;59.29
21185;BME280;18176;49.502;11.754;2022-09-09T17:08:30;96662.72;;;22.37;60.06
21185;BME280;18176;49.502;11.754;2022-09-09T17:12:27;96626.31;;;22.26;60.60
21185;BME280;18176;49.502;11.754;2022-09-09T17:16:28;96643.06;;;22.45;61.83
21185;BME280;18176;49.502;11.754;2022-09-09T17:20:26;96674.22;;;22.51;61.86
21185;BME280;18176;49.502;11.754;2022-09-09T17:24:40;96690.56;;;22.46;61.66
21185;BME280;18176;49.502;11.754;2022-09-09T17:28:40;96664.25;;;22.21;61.95
21185;BME280;18176;49.502;11.754;2022-09-09T17:32:39;96657.41;;;21.93;62.98
21185;BME280;18176;49.502;11.754;2022-09-09T17:36:37;96686.38;;;22.01;62.84
21185;BME280;18176;49.502;11.754;2022-09-09T17:40:35;96694.53;;;21.51;65.46
21185;BME280;18176;49.502;11.754;2022-09-09T17:44:32;96701.69;;;20.93;67.40
21185;BME280;18176;49.502;11.754;2022-09-09T17:48:30;96679.00;;;20.72;66.93
21185;BME280;18176;49.502;11.754;2022-09-09T17:52:27;96683.78;;;20.61;67.71
21185;BME280;18176;49.502;11.754;2022-09-09T17:56:29;96711.41;;;20.53;67.98
21185;BME280;18176;49.502;11.754;2022-09-09T18:00:33;96673.63;;;20.12;69.00
21185;BME280;18176;49.502;11.754;2022-09-09T18:04:30;96690.13;;;20.24;69.06
21185;BME280;18176;49.502;11.754;2022-09-09T18:08:27;96691.00;;;20.20;68.64
21185;BME280;18176;49.502;11.754;2022-09-09T18:12:31;96723.03;;;20.03;68.75
21185;BME280;18176;49.502;11.754;2022-09-09T18:16:32;96686.91;;;19.77;68.39
21185;BME280;18176;49.502;11.754;2022-09-09T18:20:32;96695.09;;;19.85;68.47
21185;BME280;18176;49.502;11.754;2022-09-09T18:24:30;96743.56;;;20.12;67.90
21185;BME280;18176;49.502;11.754;2022-09-09T18:28:27;96722.00;;;19.99;67.90
21185;BME280;18176;49.502;11.754;2022-09-09T18:32:24;96730.38;;;19.97;68.38
21185;BME280;18176;49.502;11.754;2022-09-09T18:36:32;96737.19;;;20.08;67.38
21185;BME280;18176;49.502;11.754;2022-09-09T18:40:31;96760.91;;;20.06;67.40
21185;BME280;18176;49.502;11.754;2022-09-09T18:44:32;96754.09;;;19.95;67.53
21185;BME280;18176;49.502;11.754;2022-09-09T18:48:32;96737.16;;;19.95;67.82
21185;BME280;18176;49.502;11.754;2022-09-09T18:52:29;96756.72;;;20.00;68.37
21185;BME280;18176;49.502;11.754;2022-09-09T18:56:28;96715.09;;;19.79;67.53
21185;BME280;18176;49.502;11.754;2022-09-09T19:00:27;96741.41;;;19.64;68.55
21185;BME280;18176;49.502;11.754;2022-09-09T19:31:13;96798.63;;;20.01;66.29
21185;BME280;18176;49.502;11.754;2022-09-09T19:57:15;96736.31;;;19.43;68.83
21185;BME280;18176;49.502;11.754;2022-09-09T20:01:15;96783.75;;;19.90;69.62
21185;BME280;18176;49.502;11.754;2022-09-09T20:05:13;96765.38;;;19.79;70.16
21185;BME280;18176;49.502;11.754;2022-09-09T20:09:15;96760.53;;;19.94;69.91
21185;BME280;18176;49.502;11.754;2022-09-09T20:13:13;96762.19;;;20.27;68.45
21185;BME280;18176;49.502;11.754;2022-09-09T20:17:10;96775.44;;;20.38;67.65
21185;BME280;18176;49.502;11.754;2022-09-09T20:21:29;96783.41;;;20.10;67.88
21185;BME280;18176;49.502;11.754;2022-09-09T20:25:29;96762.59;;;19.84;67.54
21185;BME280;18176;49.502;11.754;2022-09-09T20:29:26;96772.34;;;19.80;67.77
21185;BME280;18176;49.502;11.754;2022-09-09T20:33:23;96765.00;;;19.85;67.63
21185;BME280;18176;49.502;11.754;2022-09-09T20:37:21;96789.06;;;19.95;68.07
21185;BME280;18176;49.502;11.754;2022-09-09T20:41:21;96803.50;;;19.99;68.68
21185;BME280;18176;49.502;11.754;2022-09-09T21:00:50;96594.44;;;19.08;68.76
21185;BME280;18176;49.502;11.754;2022-09-09T21:04:47;96683.28;;;19.68;68.33
21185;BME280;18176;49.502;11.754;2022-09-09T21:08:45;96773.50;;;19.92;68.79
21185;BME280;18176;49.502;11.754;2022-09-09T21:12:43;96803.56;;;20.13;68.30
21185;BME280;18176;49.502;11.754;2022-09-09T21:16:40;96811.63;;;20.32;67.52
21185;BME280;18176;49.502;11.754;2022-09-09T21:20:37;96769.28;;;20.05;67.42
21185;BME280;18176;49.502;11.754;2022-09-09T21:24:35;96782.91;;;20.08;66.94
21185;BME280;18176;49.502;11.754;2022-09-09T21:28:32;96793.03;;;20.16;66.43
21185;BME280;18176;49.502;11.754;2022-09-09T21:32:30;96801.06;;;19.84;66.86
21185;BME280;18176;49.502;11.754;2022-09-09T21:36:28;96794.94;;;19.97;65.96
21185;BME280;18176;49.502;11.754;2022-09-09T21:40:25;96805.31;;;20.22;64.40
21185;BME280;18176;49.502;11.754;2022-09-09T21:44:22;96789.22;;;20.17;64.09
21185;BME280;18176;49.502;11.754;2022-09-09T21:48:19;96804.56;;;20.17;65.04
21185;BME280;18176;49.502;11.754;2022-09-09T21:52:16;96814.94;;;19.91;65.93
21185;BME280;18176;49.502;11.754;2022-09-09T21:56:16;96818.31;;;20.15;64.98
21185;BME280;18176;49.502;11.754;2022-09-09T22:00:14;96806.13;;;20.04;64.67
21185;BME280;18176;49.502;11.754;2022-09-09T22:04:13;96805.25;;;19.90;65.03
21185;BME280;18176;49.502;11.754;2022-09-09T22:08:14;96828.97;;;19.88;64.79
21185;BME280;18176;49.502;11.754;2022-09-09T22:12:12;96806.94;;;19.86;64.55
21185;BME280;18176;49.502;11.754;2022-09-09T22:16:12;96819.56;;;19.67;64.81
21185;BME280;18176;49.502;11.754;2022-09-09T22:20:10;96827.13;;;19.65;64.74
21185;BME280;18176;49.502;11.754;2022-09-09T22:24:10;96808.88;;;19.62;64.88
21185;BME280;18176;49.502;11.754;2022-09-09T22:28:08;96790.19;;;19.33;64.76
21185;BME280;18176;49.502;11.754;2022-09-09T22:32:05;96815.22;;;19.29;64.88
21185;BME280;18176;49.502;11.754;2022-09-09T22:36:03;96815.78;;;19.26;65.24
21185;BME280;18176;49.502;11.754;2022-09-09T22:40:01;96803.97;;;19.27;64.41
21185;BME280;18176;49.502;11.754;2022-09-09T22:43:58;96807.09;;;19.34;64.42
21185;BME280;18176;49.502;11.754;2022-09-09T22:47:55;96814.19;;;19.25;66.04
21185;BME280;18176;49.502;11.754;2022-09-09T22:51:53;96831.97;;;19.44;67.04
21185;BME280;18176;49.502;11.754;2022-09-09T22:55:56;96830.53;;;19.52;66.64
21185;BME280;18176;49.502;11.754;2022-09-09T22:59:56;96819.63;;;19.62;66.04
21185;BME280;18176;49.502;11.754;2022-09-09T23:03:55;96817.47;;;19.64;65.17
21185;BME280;18176;49.502;11.754;2022-09-09T23:07:57;96798.88;;;19.49;65.33
21185;BME280;18176;49.502;11.754;2022-09-09T23:11:54;96797.50;;;19.51;64.57
21185;BME280;18176;49.502;11.754;2022-09-09T23:15:54;96818.69;;;19.53;65.00
21185;BME280;18176;49.502;11.754;2022-09-09T23:19:51;96795.59;;;19.28;64.89